sensor_id;sensor_type;location;lat;lon;timestamp;P1;durP1;ratioP1;P2;durP2;ratioP2
50737;SDS011;36703;48.154;17.126;2022-11-23T00:00:34;3.45;;;1.65;;
50737;SDS011;36703;48.154;17.126;2022-11-23T00:04:37;4.07;;;2.17;;
50737;SDS011;36703;48.154;17.126;2022-11-23T00:08:40;2.60;;;1.80;;
50737;SDS011;36703;48.154;17.126;2022-11-23T00:12:43;3.25;;;1.60;;
50737;SDS011;36703;48.154;17.126;2022-11-23T00:16:45;2.72;;;1.90;;
50737;SDS011;36703;48.154;17.126;2022-11-23T00:20:46;3.28;;;1.88;;
50737;SDS011;36703;48.154;17.126;2022-11-23T00:24:48;2.45;;;1.52;;
50737;SDS011;36703;48.154;17.126;2022-11-23T00:28:50;4.47;;;1.77;;
50737;SDS011;36703;48.154;17.126;2022-11-23T00:32:52;2.88;;;1.70;;
50737;SDS011;36703;48.154;17.126;2022-11-23T00:36:54;3.20;;;2.10;;
50737;SDS011;36703;48.154;17.126;2022-11-23T00:40:57;2.72;;;1.92;;
50737;SDS011;36703;48.154;17.126;2022-11-23T00:45:04;2.90;;;2.08;;
50737;SDS011;36703;48.154;17.126;2022-11-23T00:49:06;3.03;;;1.90;;
50737;SDS011;36703;48.154;17.126;2022-11-23T00:53:08;5.13;;;1.90;;
50737;SDS011;36703;48.154;17.126;2022-11-23T01:01:12;3.05;;;1.80;;
50737;SDS011;36703;48.154;17.126;2022-11-23T01:05:15;2.65;;;1.85;;
50737;SDS011;36703;48.154;17.126;2022-11-23T01:09:17;3.70;;;1.95;;
50737;SDS011;36703;48.154;17.126;2022-11-23T01:13:23;2.83;;;1.98;;
50737;SDS011;36703;48.154;17.126;2022-11-23T01:21:27;4.07;;;1.75;;
50737;SDS011;36703;48.154;17.126;2022-11-23T01:25:34;2.97;;;1.80;;
50737;SDS011;36703;48.154;17.126;2022-11-23T01:29:36;3.38;;;1.83;;
50737;SDS011;36703;48.154;17.126;2022-11-23T01:37:40;5.90;;;2.15;;
50737;SDS011;36703;48.154;17.126;2022-11-23T01:41:43;4.63;;;2.20;;
50737;SDS011;36703;48.154;17.126;2022-11-23T01:49:53;4.00;;;2.47;;
50737;SDS011;36703;48.154;17.126;2022-11-23T01:54:06;6.95;;;3.72;;
50737;SDS011;36703;48.154;17.126;2022-11-23T01:58:17;6.22;;;3.80;;
50737;SDS011;36703;48.154;17.126;2022-11-23T02:02:22;6.95;;;4.38;;
50737;SDS011;36703;48.154;17.126;2022-11-23T02:06:27;10.07;;;5.28;;
50737;SDS011;36703;48.154;17.126;2022-11-23T02:10:32;11.02;;;6.07;;
50737;SDS011;36703;48.154;17.126;2022-11-23T02:14:35;13.20;;;6.15;;
50737;SDS011;36703;48.154;17.126;2022-11-23T02:18:37;8.65;;;5.90;;
50737;SDS011;36703;48.154;17.126;2022-11-23T02:26:48;10.57;;;6.05;;
50737;SDS011;36703;48.154;17.126;2022-11-23T02:30:50;11.77;;;6.15;;
50737;SDS011;36703;48.154;17.126;2022-11-23T02:34:57;9.05;;;5.57;;
50737;SDS011;36703;48.154;17.126;2022-11-23T02:43:01;7.95;;;4.78;;
50737;SDS011;36703;48.154;17.126;2022-11-23T02:47:03;9.93;;;5.97;;
50737;SDS011;36703;48.154;17.126;2022-11-23T02:51:06;9.65;;;5.10;;
50737;SDS011;36703;48.154;17.126;2022-11-23T02:59:10;9.80;;;5.32;;
50737;SDS011;36703;48.154;17.126;2022-11-23T03:07:14;6.25;;;3.70;;
50737;SDS011;36703;48.154;17.126;2022-11-23T03:15:18;5.53;;;3.17;;
50737;SDS011;36703;48.154;17.126;2022-11-23T03:19:21;6.68;;;3.35;;
50737;SDS011;36703;48.154;17.126;2022-11-23T03:23:25;6.65;;;3.88;;
50737;SDS011;36703;48.154;17.126;2022-11-23T03:27:27;5.85;;;4.00;;
50737;SDS011;36703;48.154;17.126;2022-11-23T03:31:31;6.63;;;4.30;;
50737;SDS011;36703;48.154;17.126;2022-11-23T03:35:33;7.38;;;4.00;;
50737;SDS011;36703;48.154;17.126;2022-11-23T03:40:04;6.47;;;3.77;;
50737;SDS011;36703;48.154;17.126;2022-11-23T03:44:25;7.53;;;4.23;;
50737;SDS011;36703;48.154;17.126;2022-11-23T03:48:28;6.97;;;4.15;;
50737;SDS011;36703;48.154;17.126;2022-11-23T03:52:30;6.95;;;4.35;;
50737;SDS011;36703;48.154;17.126;2022-11-23T03:56:31;8.15;;;4.95;;
50737;SDS011;36703;48.154;17.126;2022-11-23T04:00:33;8.25;;;5.35;;
50737;SDS011;36703;48.154;17.126;2022-11-23T04:04:35;9.40;;;5.45;;
50737;SDS011;36703;48.154;17.126;2022-11-23T04:08:57;9.38;;;4.50;;
50737;SDS011;36703;48.154;17.126;2022-11-23T04:13:13;11.43;;;5.45;;
50737;SDS011;36703;48.154;17.126;2022-11-23T04:17:15;9.75;;;5.60;;
50737;SDS011;36703;48.154;17.126;2022-11-23T04:21:18;8.50;;;4.80;;
50737;SDS011;36703;48.154;17.126;2022-11-23T04:25:20;10.25;;;4.88;;
50737;SDS011;36703;48.154;17.126;2022-11-23T04:29:24;9.23;;;5.13;;
50737;SDS011;36703;48.154;17.126;2022-11-23T04:33:28;14.70;;;7.85;;
50737;SDS011;36703;48.154;17.126;2022-11-23T04:37:31;16.50;;;10.25;;
50737;SDS011;36703;48.154;17.126;2022-11-23T04:41:33;18.20;;;10.27;;
50737;SDS011;36703;48.154;17.126;2022-11-23T04:45:37;16.35;;;9.65;;
50737;SDS011;36703;48.154;17.126;2022-11-23T04:49:45;18.13;;;10.27;;
50737;SDS011;36703;48.154;17.126;2022-11-23T04:53:46;23.60;;;11.57;;
50737;SDS011;36703;48.154;17.126;2022-11-23T04:57:48;20.80;;;12.15;;
50737;SDS011;36703;48.154;17.126;2022-11-23T05:01:50;17.85;;;10.65;;
50737;SDS011;36703;48.154;17.126;2022-11-23T05:06:18;20.90;;;11.77;;
50737;SDS011;36703;48.154;17.126;2022-11-23T05:10:20;17.63;;;11.10;;
50737;SDS011;36703;48.154;17.126;2022-11-23T05:14:22;18.65;;;10.75;;
50737;SDS011;36703;48.154;17.126;2022-11-23T05:18:25;17.13;;;8.68;;
50737;SDS011;36703;48.154;17.126;2022-11-23T05:22:27;16.20;;;9.13;;
50737;SDS011;36703;48.154;17.126;2022-11-23T05:26:29;17.95;;;9.73;;
50737;SDS011;36703;48.154;17.126;2022-11-23T05:30:30;15.43;;;8.90;;
50737;SDS011;36703;48.154;17.126;2022-11-23T05:34:32;13.65;;;7.72;;
50737;SDS011;36703;48.154;17.126;2022-11-23T05:38:36;15.85;;;9.27;;
50737;SDS011;36703;48.154;17.126;2022-11-23T05:42:43;20.52;;;9.52;;
50737;SDS011;36703;48.154;17.126;2022-11-23T05:46:53;13.53;;;7.73;;
50737;SDS011;36703;48.154;17.126;2022-11-23T05:50:56;12.32;;;6.13;;
50737;SDS011;36703;48.154;17.126;2022-11-23T05:55:09;8.77;;;5.55;;
50737;SDS011;36703;48.154;17.126;2022-11-23T05:59:11;7.00;;;4.50;;
50737;SDS011;36703;48.154;17.126;2022-11-23T06:03:15;9.05;;;4.40;;
50737;SDS011;36703;48.154;17.126;2022-11-23T06:07:16;6.57;;;3.50;;
50737;SDS011;36703;48.154;17.126;2022-11-23T06:11:41;8.85;;;4.45;;
50737;SDS011;36703;48.154;17.126;2022-11-23T06:15:47;7.18;;;4.35;;
50737;SDS011;36703;48.154;17.126;2022-11-23T06:19:54;10.13;;;4.40;;
50737;SDS011;36703;48.154;17.126;2022-11-23T06:23:57;6.75;;;4.07;;
50737;SDS011;36703;48.154;17.126;2022-11-23T06:27:59;7.20;;;4.60;;
50737;SDS011;36703;48.154;17.126;2022-11-23T06:32:08;8.63;;;5.03;;
50737;SDS011;36703;48.154;17.126;2022-11-23T06:36:10;7.82;;;4.80;;
50737;SDS011;36703;48.154;17.126;2022-11-23T06:40:18;11.18;;;5.18;;
50737;SDS011;36703;48.154;17.126;2022-11-23T06:44:20;10.23;;;4.65;;
50737;SDS011;36703;48.154;17.126;2022-11-23T06:48:22;10.15;;;5.63;;
50737;SDS011;36703;48.154;17.126;2022-11-23T06:52:25;9.50;;;4.97;;
50737;SDS011;36703;48.154;17.126;2022-11-23T06:56:27;8.55;;;4.88;;
50737;SDS011;36703;48.154;17.126;2022-11-23T07:00:31;11.00;;;5.80;;
50737;SDS011;36703;48.154;17.126;2022-11-23T07:04:34;10.68;;;5.97;;
50737;SDS011;36703;48.154;17.126;2022-11-23T07:08:39;14.00;;;8.20;;
50737;SDS011;36703;48.154;17.126;2022-11-23T07:13:01;13.90;;;8.88;;
50737;SDS011;36703;48.154;17.126;2022-11-23T07:17:05;17.52;;;9.68;;
50737;SDS011;36703;48.154;17.126;2022-11-23T07:21:10;23.77;;;14.73;;
50737;SDS011;36703;48.154;17.126;2022-11-23T07:25:13;22.98;;;11.88;;
50737;SDS011;36703;48.154;17.126;2022-11-23T07:29:18;21.15;;;11.57;;
50737;SDS011;36703;48.154;17.126;2022-11-23T07:33:20;25.35;;;11.93;;
50737;SDS011;36703;48.154;17.126;2022-11-23T07:37:23;21.00;;;12.05;;
50737;SDS011;36703;48.154;17.126;2022-11-23T07:41:25;24.13;;;12.95;;
50737;SDS011;36703;48.154;17.126;2022-11-23T07:45:56;22.27;;;12.15;;
50737;SDS011;36703;48.154;17.126;2022-11-23T07:49:58;25.67;;;13.52;;
50737;SDS011;36703;48.154;17.126;2022-11-23T07:53:59;22.98;;;12.52;;
50737;SDS011;36703;48.154;17.126;2022-11-23T07:58:01;21.23;;;13.38;;
50737;SDS011;36703;48.154;17.126;2022-11-23T08:02:02;21.63;;;12.68;;
50737;SDS011;36703;48.154;17.126;2022-11-23T08:06:08;22.70;;;11.70;;
50737;SDS011;36703;48.154;17.126;2022-11-23T08:10:10;23.05;;;12.90;;
50737;SDS011;36703;48.154;17.126;2022-11-23T08:14:13;22.90;;;12.70;;
50737;SDS011;36703;48.154;17.126;2022-11-23T08:18:14;23.38;;;12.82;;
50737;SDS011;36703;48.154;17.126;2022-11-23T08:22:16;22.98;;;12.63;;
50737;SDS011;36703;48.154;17.126;2022-11-23T08:26:18;21.75;;;12.38;;
50737;SDS011;36703;48.154;17.126;2022-11-23T08:30:20;23.83;;;12.80;;
50737;SDS011;36703;48.154;17.126;2022-11-23T08:34:21;21.33;;;11.90;;
50737;SDS011;36703;48.154;17.126;2022-11-23T08:38:23;19.08;;;11.82;;
50737;SDS011;36703;48.154;17.126;2022-11-23T08:42:26;20.30;;;12.40;;
50737;SDS011;36703;48.154;17.126;2022-11-23T08:46:27;19.73;;;11.45;;
50737;SDS011;36703;48.154;17.126;2022-11-23T08:50:29;20.70;;;11.80;;
50737;SDS011;36703;48.154;17.126;2022-11-23T08:54:32;23.05;;;10.85;;
50737;SDS011;36703;48.154;17.126;2022-11-23T08:58:33;21.70;;;11.73;;
50737;SDS011;36703;48.154;17.126;2022-11-23T09:02:36;20.48;;;11.32;;
50737;SDS011;36703;48.154;17.126;2022-11-23T09:06:38;151.82;;;86.68;;
50737;SDS011;36703;48.154;17.126;2022-11-23T09:10:40;26.35;;;14.82;;
50737;SDS011;36703;48.154;17.126;2022-11-23T09:14:41;31.52;;;19.02;;
50737;SDS011;36703;48.154;17.126;2022-11-23T09:18:43;22.40;;;13.23;;
50737;SDS011;36703;48.154;17.126;2022-11-23T09:22:51;24.65;;;13.45;;
50737;SDS011;36703;48.154;17.126;2022-11-23T09:26:55;24.90;;;14.40;;
50737;SDS011;36703;48.154;17.126;2022-11-23T09:30:56;27.38;;;15.35;;
50737;SDS011;36703;48.154;17.126;2022-11-23T09:34:58;28.38;;;15.32;;
50737;SDS011;36703;48.154;17.126;2022-11-23T09:39:00;29.20;;;15.93;;
50737;SDS011;36703;48.154;17.126;2022-11-23T09:52:08;38.72;;;20.27;;
50737;SDS011;36703;48.154;17.126;2022-11-23T09:56:21;31.20;;;16.63;;
50737;SDS011;36703;48.154;17.126;2022-11-23T10:00:29;29.80;;;16.38;;
50737;SDS011;36703;48.154;17.126;2022-11-23T10:04:39;34.25;;;17.23;;
50737;SDS011;36703;48.154;17.126;2022-11-23T10:13:01;31.23;;;17.65;;
50737;SDS011;36703;48.154;17.126;2022-11-23T10:22:04;32.00;;;16.92;;
50737;SDS011;36703;48.154;17.126;2022-11-23T10:26:19;29.02;;;16.80;;
50737;SDS011;36703;48.154;17.126;2022-11-23T10:30:28;29.02;;;16.10;;
50737;SDS011;36703;48.154;17.126;2022-11-23T10:34:39;29.83;;;15.35;;
50737;SDS011;36703;48.154;17.126;2022-11-23T10:43:25;27.33;;;15.88;;
50737;SDS011;36703;48.154;17.126;2022-11-23T10:47:40;27.02;;;15.23;;
50737;SDS011;36703;48.154;17.126;2022-11-23T10:55:58;22.50;;;12.93;;
50737;SDS011;36703;48.154;17.126;2022-11-23T11:04:09;19.38;;;10.57;;
50737;SDS011;36703;48.154;17.126;2022-11-23T11:08:25;20.75;;;11.85;;
50737;SDS011;36703;48.154;17.126;2022-11-23T11:12:33;19.40;;;10.73;;
50737;SDS011;36703;48.154;17.126;2022-11-23T11:16:35;18.58;;;10.38;;
50737;SDS011;36703;48.154;17.126;2022-11-23T11:20:38;20.48;;;11.05;;
50737;SDS011;36703;48.154;17.126;2022-11-23T11:24:45;20.58;;;10.43;;
50737;SDS011;36703;48.154;17.126;2022-11-23T11:28:47;22.52;;;11.63;;
50737;SDS011;36703;48.154;17.126;2022-11-23T11:32:57;22.35;;;12.00;;
50737;SDS011;36703;48.154;17.126;2022-11-23T11:41:39;19.73;;;11.83;;
50737;SDS011;36703;48.154;17.126;2022-11-23T11:45:44;21.17;;;11.90;;
50737;SDS011;36703;48.154;17.126;2022-11-23T11:49:54;19.95;;;10.25;;
50737;SDS011;36703;48.154;17.126;2022-11-23T11:58:20;21.35;;;11.20;;
50737;SDS011;36703;48.154;17.126;2022-11-23T12:02:30;20.88;;;10.57;;
50737;SDS011;36703;48.154;17.126;2022-11-23T12:06:36;17.85;;;10.13;;
50737;SDS011;36703;48.154;17.126;2022-11-23T12:11:04;21.75;;;10.48;;
50737;SDS011;36703;48.154;17.126;2022-11-23T12:15:15;19.17;;;9.50;;
50737;SDS011;36703;48.154;17.126;2022-11-23T12:19:39;14.63;;;8.85;;
50737;SDS011;36703;48.154;17.126;2022-11-23T12:38:01;23.98;;;14.30;;
50737;SDS011;36703;48.154;17.126;2022-11-23T12:42:22;14.20;;;8.10;;
50737;SDS011;36703;48.154;17.126;2022-11-23T12:51:21;14.32;;;8.15;;
50737;SDS011;36703;48.154;17.126;2022-11-23T13:00:43;14.43;;;7.75;;
50737;SDS011;36703;48.154;17.126;2022-11-23T13:23:00;15.73;;;8.60;;
50737;SDS011;36703;48.154;17.126;2022-11-23T13:39:59;18.63;;;9.40;;
50737;SDS011;36703;48.154;17.126;2022-11-23T13:43:43;14.20;;;7.82;;
50737;SDS011;36703;48.154;17.126;2022-11-23T13:56:25;16.38;;;9.02;;
50737;SDS011;36703;48.154;17.126;2022-11-23T14:10:05;18.98;;;10.00;;
50737;SDS011;36703;48.154;17.126;2022-11-23T14:14:19;17.77;;;9.65;;
50737;SDS011;36703;48.154;17.126;2022-11-23T14:36:10;19.02;;;10.10;;
50737;SDS011;36703;48.154;17.126;2022-11-23T14:45:00;17.17;;;9.10;;
50737;SDS011;36703;48.154;17.126;2022-11-23T14:49:06;18.20;;;9.52;;
50737;SDS011;36703;48.154;17.126;2022-11-23T14:53:13;17.08;;;9.52;;
50737;SDS011;36703;48.154;17.126;2022-11-23T14:57:14;18.38;;;10.18;;
50737;SDS011;36703;48.154;17.126;2022-11-23T15:01:18;17.25;;;9.68;;
50737;SDS011;36703;48.154;17.126;2022-11-23T15:05:30;17.60;;;10.07;;
50737;SDS011;36703;48.154;17.126;2022-11-23T15:09:39;19.05;;;9.63;;
50737;SDS011;36703;48.154;17.126;2022-11-23T15:14:17;17.92;;;10.15;;
50737;SDS011;36703;48.154;17.126;2022-11-23T15:18:29;18.33;;;10.77;;
50737;SDS011;36703;48.154;17.126;2022-11-23T15:22:35;19.10;;;10.70;;
50737;SDS011;36703;48.154;17.126;2022-11-23T15:26:37;18.83;;;10.55;;
50737;SDS011;36703;48.154;17.126;2022-11-23T15:30:44;19.20;;;10.75;;
50737;SDS011;36703;48.154;17.126;2022-11-23T15:34:45;21.23;;;10.85;;
50737;SDS011;36703;48.154;17.126;2022-11-23T15:38:48;37.40;;;20.90;;
50737;SDS011;36703;48.154;17.126;2022-11-23T15:42:51;24.67;;;12.43;;
50737;SDS011;36703;48.154;17.126;2022-11-23T15:47:03;22.13;;;11.73;;
50737;SDS011;36703;48.154;17.126;2022-11-23T15:51:06;18.80;;;10.77;;
50737;SDS011;36703;48.154;17.126;2022-11-23T15:55:42;22.05;;;11.13;;
50737;SDS011;36703;48.154;17.126;2022-11-23T16:04:00;21.58;;;10.98;;
50737;SDS011;36703;48.154;17.126;2022-11-23T16:08:21;20.23;;;11.38;;
50737;SDS011;36703;48.154;17.126;2022-11-23T16:12:29;21.60;;;11.77;;
50737;SDS011;36703;48.154;17.126;2022-11-23T16:16:33;22.23;;;10.98;;
50737;SDS011;36703;48.154;17.126;2022-11-23T16:20:35;18.60;;;10.90;;
50737;SDS011;36703;48.154;17.126;2022-11-23T16:24:37;21.55;;;12.13;;
50737;SDS011;36703;48.154;17.126;2022-11-23T16:28:39;20.40;;;12.00;;
50737;SDS011;36703;48.154;17.126;2022-11-23T16:32:53;21.05;;;10.70;;
50737;SDS011;36703;48.154;17.126;2022-11-23T16:36:55;19.52;;;11.13;;
50737;SDS011;36703;48.154;17.126;2022-11-23T16:40:58;22.90;;;11.25;;
50737;SDS011;36703;48.154;17.126;2022-11-23T16:45:00;24.95;;;10.05;;
50737;SDS011;36703;48.154;17.126;2022-11-23T16:49:02;15.75;;;8.98;;
50737;SDS011;36703;48.154;17.126;2022-11-23T16:53:13;18.60;;;9.70;;
50737;SDS011;36703;48.154;17.126;2022-11-23T16:57:23;20.42;;;10.55;;
50737;SDS011;36703;48.154;17.126;2022-11-23T17:01:28;16.85;;;8.85;;
50737;SDS011;36703;48.154;17.126;2022-11-23T17:05:32;16.67;;;9.82;;
50737;SDS011;36703;48.154;17.126;2022-11-23T17:09:33;20.67;;;10.20;;
50737;SDS011;36703;48.154;17.126;2022-11-23T17:13:35;18.67;;;10.30;;
50737;SDS011;36703;48.154;17.126;2022-11-23T17:17:37;22.17;;;10.75;;
50737;SDS011;36703;48.154;17.126;2022-11-23T17:21:39;19.95;;;10.25;;
50737;SDS011;36703;48.154;17.126;2022-11-23T17:25:41;21.50;;;11.50;;
50737;SDS011;36703;48.154;17.126;2022-11-23T17:29:42;23.58;;;11.75;;
50737;SDS011;36703;48.154;17.126;2022-11-23T17:33:45;23.58;;;12.68;;
50737;SDS011;36703;48.154;17.126;2022-11-23T17:37:47;23.58;;;11.98;;
50737;SDS011;36703;48.154;17.126;2022-11-23T17:41:49;21.92;;;12.45;;
50737;SDS011;36703;48.154;17.126;2022-11-23T17:45:51;25.85;;;12.27;;
50737;SDS011;36703;48.154;17.126;2022-11-23T17:49:53;30.58;;;14.15;;
50737;SDS011;36703;48.154;17.126;2022-11-23T17:53:54;27.90;;;12.90;;
50737;SDS011;36703;48.154;17.126;2022-11-23T17:57:56;25.38;;;13.95;;
50737;SDS011;36703;48.154;17.126;2022-11-23T18:01:58;27.23;;;14.80;;
50737;SDS011;36703;48.154;17.126;2022-11-23T18:05:59;26.90;;;14.02;;
50737;SDS011;36703;48.154;17.126;2022-11-23T18:10:01;31.05;;;15.07;;
50737;SDS011;36703;48.154;17.126;2022-11-23T18:14:03;33.72;;;17.17;;
50737;SDS011;36703;48.154;17.126;2022-11-23T18:18:05;33.33;;;17.25;;
50737;SDS011;36703;48.154;17.126;2022-11-23T18:22:07;34.60;;;18.38;;
50737;SDS011;36703;48.154;17.126;2022-11-23T18:26:22;67.90;;;34.60;;
50737;SDS011;36703;48.154;17.126;2022-11-23T18:30:25;35.22;;;18.38;;
50737;SDS011;36703;48.154;17.126;2022-11-23T18:34:28;42.47;;;20.73;;
50737;SDS011;36703;48.154;17.126;2022-11-23T18:38:30;38.45;;;20.52;;
50737;SDS011;36703;48.154;17.126;2022-11-23T18:42:33;42.50;;;20.02;;
50737;SDS011;36703;48.154;17.126;2022-11-23T18:46:34;44.75;;;20.70;;
50737;SDS011;36703;48.154;17.126;2022-11-23T18:50:36;43.60;;;21.13;;
50737;SDS011;36703;48.154;17.126;2022-11-23T18:54:38;44.63;;;22.15;;
50737;SDS011;36703;48.154;17.126;2022-11-23T18:58:40;51.53;;;22.20;;
50737;SDS011;36703;48.154;17.126;2022-11-23T19:02:43;47.35;;;22.67;;
50737;SDS011;36703;48.154;17.126;2022-11-23T19:06:52;49.25;;;22.63;;
50737;SDS011;36703;48.154;17.126;2022-11-23T19:10:54;45.50;;;22.55;;
50737;SDS011;36703;48.154;17.126;2022-11-23T19:15:05;42.77;;;21.87;;
50737;SDS011;36703;48.154;17.126;2022-11-23T19:19:09;64.07;;;32.78;;
50737;SDS011;36703;48.154;17.126;2022-11-23T19:23:11;52.45;;;23.27;;
50737;SDS011;36703;48.154;17.126;2022-11-23T19:27:13;47.40;;;22.88;;
50737;SDS011;36703;48.154;17.126;2022-11-23T19:31:15;48.40;;;24.58;;
50737;SDS011;36703;48.154;17.126;2022-11-23T19:35:28;51.10;;;23.73;;
50737;SDS011;36703;48.154;17.126;2022-11-23T19:39:30;56.30;;;25.35;;
50737;SDS011;36703;48.154;17.126;2022-11-23T19:43:31;56.30;;;25.35;;
50737;SDS011;36703;48.154;17.126;2022-11-23T19:47:33;56.95;;;25.67;;
50737;SDS011;36703;48.154;17.126;2022-11-23T19:51:36;52.60;;;25.90;;
50737;SDS011;36703;48.154;17.126;2022-11-23T19:55:37;55.63;;;25.73;;
50737;SDS011;36703;48.154;17.126;2022-11-23T19:59:39;49.47;;;25.45;;
50737;SDS011;36703;48.154;17.126;2022-11-23T20:03:41;48.75;;;24.83;;
50737;SDS011;36703;48.154;17.126;2022-11-23T20:07:46;89.93;;;44.25;;
50737;SDS011;36703;48.154;17.126;2022-11-23T20:11:47;51.85;;;23.55;;
50737;SDS011;36703;48.154;17.126;2022-11-23T20:15:49;53.47;;;23.92;;
50737;SDS011;36703;48.154;17.126;2022-11-23T20:19:51;46.60;;;23.23;;
50737;SDS011;36703;48.154;17.126;2022-11-23T20:23:54;51.80;;;24.70;;
50737;SDS011;36703;48.154;17.126;2022-11-23T20:28:03;50.78;;;25.23;;
50737;SDS011;36703;48.154;17.126;2022-11-23T20:32:06;53.42;;;24.58;;
50737;SDS011;36703;48.154;17.126;2022-11-23T20:40:10;47.90;;;23.92;;
50737;SDS011;36703;48.154;17.126;2022-11-23T20:44:12;49.80;;;24.58;;
50737;SDS011;36703;48.154;17.126;2022-11-23T20:48:14;50.47;;;23.95;;
50737;SDS011;36703;48.154;17.126;2022-11-23T20:52:16;50.67;;;24.67;;
50737;SDS011;36703;48.154;17.126;2022-11-23T20:56:17;45.72;;;22.45;;
50737;SDS011;36703;48.154;17.126;2022-11-23T21:00:20;46.55;;;21.45;;
50737;SDS011;36703;48.154;17.126;2022-11-23T21:04:23;45.00;;;21.25;;
50737;SDS011;36703;48.154;17.126;2022-11-23T21:08:24;46.85;;;22.40;;
50737;SDS011;36703;48.154;17.126;2022-11-23T21:12:28;49.05;;;21.55;;
50737;SDS011;36703;48.154;17.126;2022-11-23T21:16:52;44.78;;;21.77;;
50737;SDS011;36703;48.154;17.126;2022-11-23T21:20:56;50.13;;;22.17;;
50737;SDS011;36703;48.154;17.126;2022-11-23T21:24:58;50.03;;;22.95;;
50737;SDS011;36703;48.154;17.126;2022-11-23T21:29:00;52.20;;;23.27;;
50737;SDS011;36703;48.154;17.126;2022-11-23T21:33:03;53.15;;;23.00;;
50737;SDS011;36703;48.154;17.126;2022-11-23T21:37:05;59.88;;;27.17;;
50737;SDS011;36703;48.154;17.126;2022-11-23T21:41:12;54.47;;;25.58;;
50737;SDS011;36703;48.154;17.126;2022-11-23T21:45:15;59.25;;;27.67;;
50737;SDS011;36703;48.154;17.126;2022-11-23T21:49:17;58.20;;;27.92;;
50737;SDS011;36703;48.154;17.126;2022-11-23T21:53:19;65.80;;;28.10;;
50737;SDS011;36703;48.154;17.126;2022-11-23T21:57:20;66.57;;;28.95;;
50737;SDS011;36703;48.154;17.126;2022-11-23T22:01:23;69.28;;;29.65;;
50737;SDS011;36703;48.154;17.126;2022-11-23T22:05:30;69.32;;;30.58;;
50737;SDS011;36703;48.154;17.126;2022-11-23T22:09:31;66.22;;;29.23;;
50737;SDS011;36703;48.154;17.126;2022-11-23T22:13:34;67.05;;;31.15;;
50737;SDS011;36703;48.154;17.126;2022-11-23T22:17:35;75.10;;;35.40;;
50737;SDS011;36703;48.154;17.126;2022-11-23T22:21:37;71.50;;;34.47;;
50737;SDS011;36703;48.154;17.126;2022-11-23T22:25:40;70.05;;;32.72;;
50737;SDS011;36703;48.154;17.126;2022-11-23T22:29:42;76.32;;;32.33;;
50737;SDS011;36703;48.154;17.126;2022-11-23T22:33:44;66.93;;;30.83;;
50737;SDS011;36703;48.154;17.126;2022-11-23T22:37:46;68.20;;;29.40;;
50737;SDS011;36703;48.154;17.126;2022-11-23T22:41:48;65.85;;;30.85;;
50737;SDS011;36703;48.154;17.126;2022-11-23T22:45:49;73.32;;;30.30;;
50737;SDS011;36703;48.154;17.126;2022-11-23T22:49:52;67.40;;;29.23;;
50737;SDS011;36703;48.154;17.126;2022-11-23T22:53:55;68.63;;;31.08;;
50737;SDS011;36703;48.154;17.126;2022-11-23T22:57:58;69.32;;;30.15;;
50737;SDS011;36703;48.154;17.126;2022-11-23T23:02:00;74.13;;;31.15;;
50737;SDS011;36703;48.154;17.126;2022-11-23T23:06:02;68.35;;;30.48;;
50737;SDS011;36703;48.154;17.126;2022-11-23T23:10:04;69.55;;;29.08;;
50737;SDS011;36703;48.154;17.126;2022-11-23T23:14:06;72.38;;;31.73;;
50737;SDS011;36703;48.154;17.126;2022-11-23T23:18:08;73.93;;;30.10;;
50737;SDS011;36703;48.154;17.126;2022-11-23T23:22:10;159.55;;;70.20;;
50737;SDS011;36703;48.154;17.126;2022-11-23T23:26:12;119.15;;;55.50;;
50737;SDS011;36703;48.154;17.126;2022-11-23T23:30:16;81.70;;;36.70;;
50737;SDS011;36703;48.154;17.126;2022-11-23T23:34:18;69.28;;;30.33;;
50737;SDS011;36703;48.154;17.126;2022-11-23T23:38:19;68.93;;;30.55;;
50737;SDS011;36703;48.154;17.126;2022-11-23T23:42:25;73.30;;;32.25;;
50737;SDS011;36703;48.154;17.126;2022-11-23T23:46:27;74.70;;;32.63;;
50737;SDS011;36703;48.154;17.126;2022-11-23T23:50:28;74.78;;;33.42;;
50737;SDS011;36703;48.154;17.126;2022-11-23T23:54:30;131.93;;;56.22;;
50737;SDS011;36703;48.154;17.126;2022-11-23T23:58:32;87.30;;;38.40;;
